Time;durP1;ratioP1;P1;durP2;ratioP2;P2;SDS_P1;SDS_P2;PMS_P1;PMS_P2;Temp;Humidity;BMP_temperature;BMP_pressure;BME280_temperature;BME280_humidity;BME280_pressure;Samples;Min_cycle;Max_cycle;Signal;HPM_P1;HPM_P2
2022/05/10 00:00:13;;;;;;;25.63;12.02;;;;;;;13.72;100.00;98555.47;4979958;28;20030;-55
2022/05/10 00:02:39;;;;;;;24.77;11.57;;;;;;;13.69;100.00;98552.06;4979903;28;20065;-56
2022/05/10 00:05:06;;;;;;;24.45;10.77;;;;;;;13.71;100.00;98561.59;4985141;28;20405;-55
2022/05/10 00:07:34;;;;;;;21.02;9.68;;;;;;;14.06;100.00;98554.75;4979670;28;20129;-56
2022/05/10 00:10:00;;;;;;;29.42;11.35;;;;;;;13.70;100.00;98545.03;4980164;28;20026;-56
2022/05/10 00:12:26;;;;;;;23.55;11.13;;;;;;;13.33;100.00;98558.94;4994438;28;20077;-57
2022/05/10 00:14:52;;;;;;;24.52;11.00;;;;;;;13.45;100.00;98555.75;4980108;28;20035;-56
2022/05/10 00:17:28;;;;;;;25.17;11.88;;;;;;;13.28;100.00;98553.84;4979829;28;20550;-55
2022/05/10 00:19:54;;;;;;;25.90;11.32;;;;;;;13.45;100.00;98555.75;4977663;28;20030;-56
2022/05/10 00:22:19;;;;;;;27.92;12.00;;;;;;;13.22;100.00;98554.94;4977430;28;20049;-55
2022/05/10 00:24:44;;;;;;;26.08;11.48;;;;;;;13.29;100.00;98561.63;4979543;28;20117;-56
2022/05/10 00:27:10;;;;;;;28.55;11.35;;;;;;;13.13;100.00;98557.13;4978800;28;20046;-54
2022/05/10 00:29:35;;;;;;;21.95;11.13;;;;;;;13.46;100.00;98553.06;4979880;28;20033;-56
2022/05/10 00:32:00;;;;;;;29.42;12.50;;;;;;;13.21;100.00;98553.22;4978916;28;20145;-56
2022/05/10 00:34:28;;;;;;;25.33;11.50;;;;;;;12.94;100.00;98550.03;4979472;28;20050;-60
2022/05/10 00:36:55;;;;;;;25.10;11.65;;;;;;;13.19;100.00;98549.84;4979322;28;20030;-55
2022/05/10 00:39:20;;;;;;;23.40;10.77;;;;;;;13.50;100.00;98559.03;4980028;28;20030;-54
2022/05/10 00:41:54;;;;;;;23.38;11.35;;;;;;;13.42;100.00;98555.91;4979431;28;20649;-56
2022/05/10 00:44:27;;;;;;;23.65;10.95;;;;;;;13.28;100.00;98556.44;4979741;28;20038;-56
2022/05/10 00:47:12;;;;;;;28.38;11.57;;;;;;;13.18;100.00;98552.50;4979211;28;20045;-55
2022/05/10 00:49:50;;;;;;;30.60;12.13;;;;;;;13.04;100.00;98553.13;4979349;28;20701;-56
2022/05/10 00:52:24;;;;;;;23.95;10.77;;;;;;;13.33;100.00;98556.31;4979002;28;20125;-54
2022/05/10 00:55:02;;;;;;;27.92;12.27;;;;;;;13.24;100.00;98552.28;4979368;28;20030;-55
2022/05/10 00:57:34;;;;;;;25.63;11.77;;;;;;;13.27;100.00;98549.50;4978321;28;20101;-56
2022/05/10 01:00:02;;;;;;;;;;;;;;;13.08;100.00;98549.44;4979805;28;20029;-54
2022/05/10 01:02:27;;;;;;;23.17;11.20;;;;;;;13.07;100.00;98555.63;4978973;28;20375;-55
2022/05/10 01:04:58;;;;;;;24.93;11.90;;;;;;;13.05;100.00;98552.19;4979449;28;20033;-56
2022/05/10 01:07:31;;;;;;;23.70;11.35;;;;;;;13.18;100.00;98548.16;4978724;28;20358;-56
2022/05/10 01:10:38;;;;;;;26.15;11.90;;;;;;;12.91;100.00;98550.16;4978779;28;20053;-56
2022/05/10 01:13:14;;;;;;;32.45;12.80;;;;;;;13.02;100.00;98547.09;4978571;28;20126;-55
2022/05/10 01:15:48;;;;;;;25.65;11.38;;;;;;;13.12;100.00;98553.63;4978833;28;20050;-55
2022/05/10 01:18:14;;;;;;;26.25;12.10;;;;;;;13.26;100.00;98546.03;4979230;28;20531;-54
2022/05/10 01:20:43;;;;;;;25.13;11.98;;;;;;;12.87;100.00;98549.44;4978306;28;20049;-55
2022/05/10 01:23:31;;;;;;;24.95;12.05;;;;;;;12.91;100.00;98539.69;4978864;28;20213;-56
2022/05/10 01:26:05;;;;;;;26.13;12.02;;;;;;;12.93;100.00;98545.72;4978790;28;20034;-55
2022/05/10 01:28:45;;;;;;;27.25;12.10;;;;;;;13.11;100.00;98541.47;4978487;28;20025;-56
2022/05/10 01:31:17;;;;;;;25.63;11.30;;;;;;;12.85;100.00;98540.78;4978502;28;20049;-56
2022/05/10 01:33:54;;;;;;;20.60;9.82;;;;;;;13.16;100.00;98542.13;4979395;28;20092;-55
2022/05/10 01:36:43;;;;;;;24.27;11.75;;;;;;;12.98;100.00;98540.28;4978202;28;20086;-56
2022/05/10 01:39:23;;;;;;;26.00;10.48;;;;;;;13.11;100.00;98528.38;4981266;28;20085;-55
2022/05/10 01:41:55;;;;;;;28.67;12.07;;;;;;;12.67;100.00;98534.53;4982278;28;20658;-55
2022/05/10 01:44:36;;;;;;;23.25;10.98;;;;;;;12.92;100.00;98537.00;4983001;28;20054;-56
2022/05/10 01:47:12;;;;;;;25.98;11.15;;;;;;;12.95;100.00;98529.94;4982488;28;20045;-56
2022/05/10 01:49:45;;;;;;;24.05;11.07;;;;;;;12.86;100.00;98526.78;4982833;28;20030;-55
2022/05/10 01:52:18;;;;;;;23.23;11.57;;;;;;;12.39;100.00;98541.78;4982166;28;20046;-56
2022/05/10 01:54:46;;;;;;;24.73;12.07;;;;;;;12.41;100.00;98538.22;4982660;28;20034;-54
2022/05/10 01:57:15;;;;;;;22.45;11.38;;;;;;;12.32;100.00;98530.75;4982401;28;20042;-55
2022/05/10 01:59:48;;;;;;;30.48;12.48;;;;;;;12.34;100.00;98531.53;4982521;28;20038;-54
2022/05/10 02:02:18;;;;;;;29.70;12.20;;;;;;;12.25;100.00;98529.28;4981858;28;20494;-55
2022/05/10 02:04:48;;;;;;;24.48;11.57;;;;;;;12.26;100.00;98529.22;4982380;28;20088;-55
2022/05/10 02:07:19;;;;;;;23.92;10.27;;;;;;;12.44;100.00;98530.25;4982015;28;20035;-56
2022/05/10 02:10:09;;;;;;;24.40;10.95;;;;;;;12.72;100.00;98526.53;4980468;28;20143;-55
2022/05/10 02:12:44;;;;;;;28.02;10.93;;;;;;;12.49;100.00;98525.66;4981584;28;20396;-54
2022/05/10 02:15:26;;;;;;;24.70;10.65;;;;;;;12.29;100.00;98521.22;4981973;28;20959;-56
2022/05/10 02:18:07;;;;;;;28.60;12.00;;;;;;;11.78;100.00;98519.69;4982295;28;20029;-56
2022/05/10 02:21:08;;;;;;;23.23;11.30;;;;;;;11.96;100.00;98523.41;4982257;28;20122;-55
2022/05/10 02:24:10;;;;;;;25.17;11.18;;;;;;;11.91;100.00;98523.59;4982040;28;20104;-55
2022/05/10 02:26:44;;;;;;;26.90;10.87;;;;;;;12.42;100.00;98526.84;4980727;28;20034;-55
2022/05/10 02:29:28;;;;;;;25.65;10.77;;;;;;;12.60;100.00;98524.41;4981945;28;20030;-56
2022/05/10 02:34:43;;;;;;;29.08;12.02;;;;;;;12.04;100.00;98523.97;4982054;28;20045;-55
2022/05/10 02:37:09;;;;;;;26.00;11.35;;;;;;;11.92;100.00;98525.28;4981279;28;20034;-57
2022/05/10 02:39:35;;;;;;;26.35;12.25;;;;;;;11.69;100.00;98515.69;4981519;28;20618;-56
2022/05/10 02:42:02;;;;;;;24.45;11.88;;;;;;;11.82;100.00;98516.06;4981566;28;20065;-55
2022/05/10 02:44:28;;;;;;;29.80;11.85;;;;;;;11.95;100.00;98517.34;4981285;28;20037;-56
2022/05/10 02:46:55;;;;;;;22.02;10.57;;;;;;;11.86;100.00;98524.66;4980937;28;20049;-55
2022/05/10 02:49:21;;;;;;;24.08;11.57;;;;;;;11.79;100.00;98523.19;4981794;28;20076;-56
2022/05/10 02:51:47;;;;;;;27.23;11.10;;;;;;;11.68;100.00;98519.19;4981426;28;20369;-55
2022/05/10 02:54:12;;;;;;;28.70;11.95;;;;;;;11.88;100.00;98515.81;4981231;28;20030;-55
2022/05/10 02:56:40;;;;;;;22.75;9.93;;;;;;;12.26;100.00;98515.28;4980968;28;20052;-55
2022/05/10 02:59:14;;;;;;;24.83;11.20;;;;;;;11.88;100.00;98517.59;4981872;28;20120;-56
2022/05/10 03:01:58;;;;;;;23.98;11.30;;;;;;;11.64;100.00;98507.16;4980973;28;20220;-56
2022/05/10 03:04:23;;;;;;;21.65;10.63;;;;;;;11.60;100.00;98509.91;4981158;28;20129;-57
2022/05/10 03:06:49;;;;;;;26.48;11.45;;;;;;;11.72;100.00;98502.47;4980583;28;20046;-58
2022/05/10 03:09:15;;;;;;;27.30;11.70;;;;;;;11.60;100.00;98507.31;4981501;28;20122;-57
2022/05/10 03:11:41;;;;;;;24.30;11.15;;;;;;;11.66;100.00;98505.34;4980797;28;20042;-57
2022/05/10 03:14:09;;;;;;;24.30;11.85;;;;;;;11.41;100.00;98512.38;4996215;28;20124;-57
2022/05/10 03:16:34;;;;;;;28.25;12.38;;;;;;;11.26;100.00;98506.78;4980283;28;20097;-56
2022/05/10 03:19:00;;;;;;;26.65;12.13;;;;;;;11.28;100.00;98510.19;4981019;28;20073;-56
2022/05/10 03:21:25;;;;;;;29.25;12.32;;;;;;;11.23;100.00;98511.25;4980527;28;20419;-56
2022/05/10 03:23:51;;;;;;;27.40;11.45;;;;;;;11.29;100.00;98503.22;4981358;28;20049;-56
2022/05/10 03:26:21;;;;;;;24.30;11.63;;;;;;;11.29;100.00;98506.69;4980715;28;20042;-56
2022/05/10 03:31:58;;;;;;;30.98;12.05;;;;;;;11.83;100.00;98507.31;4980151;28;20100;-57
2022/05/10 03:37:08;;;;;;;28.30;12.23;;;;;;;11.10;100.00;98503.00;4980203;28;20578;-56
2022/05/10 03:39:34;;;;;;;27.38;12.30;;;;;;;11.35;100.00;98506.44;4980741;28;20643;-56
2022/05/10 03:42:00;;;;;;;25.88;11.05;;;;;;;11.46;100.00;98513.06;4979983;28;20049;-57
2022/05/10 03:44:25;;;;;;;28.55;11.50;;;;;;;11.48;100.00;98500.78;4981432;28;20022;-57
2022/05/10 03:46:50;;;;;;;23.40;11.23;;;;;;;11.61;100.00;98496.81;4979890;28;20045;-57
2022/05/10 03:49:16;;;;;;;26.35;10.95;;;;;;;11.87;100.00;98510.66;4980901;28;20030;-58
2022/05/10 03:51:42;;;;;;;26.63;10.48;;;;;;;11.97;100.00;98506.81;4980221;28;20093;-56
2022/05/10 03:54:07;;;;;;;27.02;10.07;;;;;;;12.44;100.00;98498.00;4980268;28;20407;-57
2022/05/10 03:56:36;;;;;;;27.58;11.02;;;;;;;12.18;100.00;98502.50;4978730;28;20038;-56
2022/05/10 03:59:02;;;;;;;23.80;11.43;;;;;;;11.56;100.00;98502.22;4980717;28;20065;-56
2022/05/10 04:01:27;;;;;;;27.25;12.57;;;;;;;11.52;100.00;98502.38;4979216;28;20065;-58
2022/05/10 04:03:53;;;;;;;25.33;11.80;;;;;;;11.57;100.00;98509.13;4980234;28;20030;-57
2022/05/10 04:06:18;;;;;;;27.70;11.75;;;;;;;11.80;100.00;98512.66;4980013;28;20643;-56
2022/05/10 04:08:45;;;;;;;27.40;11.68;;;;;;;11.93;100.00;98507.84;4980019;28;20034;-55
2022/05/10 04:11:12;;;;;;;30.92;12.75;;;;;;;12.54;100.00;98513.25;4979728;28;20073;-56
2022/05/10 04:13:41;;;;;;;27.88;11.80;;;;;;;12.28;100.00;98513.47;4979846;28;20041;-57
2022/05/10 04:16:07;;;;;;;24.67;12.18;;;;;;;13.03;100.00;98509.50;4977028;28;20121;-57
2022/05/10 04:18:33;;;;;;;25.10;11.13;;;;;;;12.64;100.00;98503.25;4977980;28;20208;-57
2022/05/10 04:20:59;;;;;;;22.52;10.50;;;;;;;12.92;100.00;98495.13;4979348;28;20038;-56
2022/05/10 04:23:25;;;;;;;26.10;11.40;;;;;;;12.51;100.00;98502.91;4979437;28;20054;-56
2022/05/10 04:25:51;;;;;;;24.92;11.82;;;;;;;12.36;100.00;98500.94;4979912;28;20034;-57
2022/05/10 04:28:16;;;;;;;24.90;11.77;;;;;;;12.74;100.00;98498.50;4979835;28;20084;-57
2022/05/10 04:30:41;;;;;;;25.15;11.23;;;;;;;12.91;100.00;98493.41;4979538;28;20759;-57
2022/05/10 04:33:07;;;;;;;22.67;10.65;;;;;;;13.49;100.00;98497.03;4980047;28;20045;-57
2022/05/10 04:35:32;;;;;;;24.98;11.55;;;;;;;13.32;100.00;98497.78;4979519;28;20030;-57
2022/05/10 04:38:03;;;;;;;32.75;11.85;;;;;;;13.27;100.00;98489.25;4979984;28;20030;-56
2022/05/10 04:43:13;;;;;;;26.90;11.32;;;;;;;13.37;100.00;98497.59;4979523;28;20831;-57
2022/05/10 04:45:40;;;;;;;21.58;10.95;;;;;;;13.77;100.00;98493.19;4978831;28;20046;-55
2022/05/10 04:48:05;;;;;;;23.05;10.73;;;;;;;13.54;100.00;98491.59;4979469;28;20030;-56
2022/05/10 04:50:30;;;;;;;26.75;11.32;;;;;;;13.83;100.00;98493.72;4978959;28;20054;-56
2022/05/10 04:52:56;;;;;;;25.73;11.73;;;;;;;13.87;100.00;98499.69;4979221;28;20038;-56
2022/05/10 04:55:21;;;;;;;21.50;10.25;;;;;;;14.15;100.00;98498.38;4979491;28;20300;-57
2022/05/10 04:57:47;;;;;;;23.85;11.07;;;;;;;14.19;100.00;98499.94;4977815;28;20403;-55
2022/05/10 05:00:14;;;;;;;24.92;11.05;;;;;;;14.28;100.00;98502.16;4978422;28;20022;-56
2022/05/10 05:02:42;;;;;;;24.25;10.93;;;;;;;14.12;100.00;98501.19;4978559;28;20047;-54
2022/05/10 05:05:08;;;;;;;26.70;11.32;;;;;;;14.20;100.00;98512.13;4978482;28;20037;-54
2022/05/10 05:07:33;;;;;;;27.13;11.27;;;;;;;14.86;100.00;98506.31;4978725;28;20038;-55
2022/05/10 05:09:59;;;;;;;23.38;10.95;;;;;;;15.14;100.00;98507.53;4978785;28;20034;-55
2022/05/10 05:12:24;;;;;;;24.52;11.57;;;;;;;14.72;100.00;98514.03;4978534;28;20038;-57
2022/05/10 05:14:49;;;;;;;22.30;10.63;;;;;;;15.51;100.00;98506.47;4979390;28;20026;-56
2022/05/10 05:17:16;;;;;;;25.92;11.10;;;;;;;15.39;100.00;98510.59;4978444;28;20038;-55
2022/05/10 05:19:41;;;;;;;27.15;10.60;;;;;;;15.30;100.00;98504.97;4979072;28;20041;-59
2022/05/10 05:22:06;;;;;;;23.35;10.85;;;;;;;15.78;100.00;98505.94;4977849;28;20050;-55
2022/05/10 05:24:32;;;;;;;26.00;10.25;;;;;;;16.42;100.00;98505.97;4976384;28;20030;-55
2022/05/10 05:26:57;;;;;;;20.73;10.48;;;;;;;16.82;100.00;98506.25;4975934;28;20673;-55
2022/05/10 05:29:23;;;;;;;22.60;10.35;;;;;;;16.92;100.00;98504.84;4977904;28;20494;-56
2022/05/10 05:31:51;;;;;;;18.77;9.50;;;;;;;17.30;100.00;98509.63;4978496;28;20204;-55
2022/05/10 05:34:17;;;;;;;20.80;9.65;;;;;;;18.16;100.00;98508.72;4978305;28;20432;-56
2022/05/10 05:36:43;;;;;;;20.42;9.43;;;;;;;18.17;100.00;98506.00;4978475;28;20057;-57
2022/05/10 05:39:08;;;;;;;21.83;10.00;;;;;;;18.46;100.00;98508.56;4978690;28;20026;-56
2022/05/10 05:41:33;;;;;;;24.95;10.25;;;;;;;19.23;100.00;98496.38;4978293;28;20042;-56
2022/05/10 05:43:59;;;;;;;19.70;8.85;;;;;;;21.20;100.00;98501.69;4978262;28;20615;-57
2022/05/10 05:46:25;;;;;;;19.48;8.80;;;;;;;22.14;100.00;98493.34;4977766;28;20046;-55
2022/05/10 05:48:50;;;;;;;18.75;8.93;;;;;;;23.70;89.83;98496.34;4977255;28;20045;-56
2022/05/10 05:51:15;;;;;;;18.10;8.30;;;;;;;24.92;75.16;98486.34;4977054;28;20043;-56
2022/05/10 05:53:41;;;;;;;14.40;7.75;;;;;;;25.97;69.26;98484.53;4978583;28;20520;-55
2022/05/10 05:56:09;;;;;;;15.15;7.53;;;;;;;26.54;63.57;98492.31;4978254;28;20591;-55
2022/05/10 05:58:38;;;;;;;12.05;6.93;;;;;;;25.16;62.52;98483.25;4977529;28;20690;-55
2022/05/10 06:01:12;;;;;;;14.77;7.70;;;;;;;27.14;60.27;98472.94;4978189;28;20416;-57
2022/05/10 06:03:37;;;;;;;15.70;7.05;;;;;;;26.75;57.95;98475.16;4978542;28;20064;-56
2022/05/10 06:06:02;;;;;;;12.82;7.00;;;;;;;28.88;53.63;98476.13;4978416;28;20046;-55
2022/05/10 06:08:28;;;;;;;11.90;7.15;;;;;;;28.38;53.55;98471.69;4978566;28;20027;-55
2022/05/10 06:10:55;;;;;;;11.50;6.65;;;;;;;28.55;50.47;98470.75;4977960;28;20042;-56
2022/05/10 06:13:21;;;;;;;10.07;6.13;;;;;;;30.23;48.78;98464.66;4977838;28;20097;-56
2022/05/10 06:15:47;;;;;;;13.60;6.40;;;;;;;29.61;50.39;98466.25;4977805;28;20710;-56
2022/05/10 06:18:15;;;;;;;11.00;6.18;;;;;;;31.24;44.80;98462.75;4978043;28;20022;-58
2022/05/10 06:20:40;;;;;;;10.40;5.88;;;;;;;30.53;45.26;98461.16;4978049;28;20125;-57
2022/05/10 06:23:06;;;;;;;9.55;6.45;;;;;;;30.99;45.07;98464.81;4978500;28;20688;-57
2022/05/10 06:25:32;;;;;;;8.63;5.72;;;;;;;31.82;43.21;98460.28;4981017;28;20046;-57
2022/05/10 06:27:58;;;;;;;8.23;5.70;;;;;;;31.39;42.56;98460.88;4981836;28;20081;-56
2022/05/10 06:30:24;;;;;;;8.15;5.70;;;;;;;29.37;47.81;98470.72;4996270;28;20019;-56
2022/05/10 06:32:50;;;;;;;8.57;5.30;;;;;;;31.93;42.85;98462.47;4981871;28;20026;-57
2022/05/10 06:35:17;;;;;;;7.65;5.50;;;;;;;32.55;40.77;98455.72;4981438;28;20966;-57
2022/05/10 06:40:26;;;;;;;7.38;5.13;;;;;;;31.79;41.72;98460.63;4981353;28;20092;-57
2022/05/10 06:42:52;;;;;;;10.63;5.68;;;;;;;30.29;44.17;98464.81;4981638;28;20026;-57
2022/05/10 06:45:19;;;;;;;7.43;5.00;;;;;;;32.42;41.54;98464.53;4981273;28;20041;-58
2022/05/10 06:47:47;;;;;;;7.95;5.22;;;;;;;33.09;40.24;98451.63;4981084;28;20366;-57
2022/05/10 06:50:16;;;;;;;7.43;5.10;;;;;;;33.03;40.29;98461.34;4981126;28;20026;-57
2022/05/10 06:52:42;;;;;;;8.32;4.90;;;;;;;32.42;41.59;98455.56;4981862;28;20030;-57
2022/05/10 06:55:08;;;;;;;7.88;5.05;;;;;;;33.52;39.39;98456.06;4981874;28;20088;-58
2022/05/10 06:57:34;;;;;;;8.38;5.18;;;;;;;32.16;40.58;98458.81;4980347;28;20038;-56
2022/05/10 06:59:59;;;;;;;7.85;4.95;;;;;;;33.38;40.21;98465.97;4981219;28;20644;-57
2022/05/10 07:02:25;;;;;;;10.52;5.03;;;;;;;32.76;40.45;98454.06;4980957;28;20065;-58
2022/05/10 07:04:52;;;;;;;7.45;5.00;;;;;;;31.55;42.58;98449.13;4981660;28;20388;-56
2022/05/10 07:07:17;;;;;;;6.15;4.68;;;;;;;33.30;40.29;98455.31;4980752;28;20417;-56
2022/05/10 07:09:42;;;;;;;11.27;4.80;;;;;;;31.82;42.17;98454.88;4981000;28;20471;-57
2022/05/10 07:12:08;;;;;;;7.22;4.75;;;;;;;32.79;42.54;98454.50;4980633;28;20539;-58
2022/05/10 07:14:33;;;;;;;9.25;4.45;;;;;;;32.54;41.93;98458.59;4980958;28;20642;-56
2022/05/10 07:16:59;;;;;;;8.30;4.97;;;;;;;32.96;39.34;98452.34;4980406;28;20070;-57
2022/05/10 07:19:24;;;;;;;7.17;4.80;;;;;;;33.60;37.75;98456.75;4980997;28;20113;-57
2022/05/10 07:21:49;;;;;;;5.32;4.40;;;;;;;33.50;38.69;98453.56;4980407;28;20742;-57
2022/05/10 07:24:16;;;;;;;8.27;4.22;;;;;;;32.60;40.41;98453.28;4981034;28;20036;-56
2022/05/10 07:26:45;;;;;;;6.93;4.65;;;;;;;32.19;42.31;98450.34;4979993;28;20555;-58
2022/05/10 07:29:10;;;;;;;5.40;4.25;;;;;;;34.80;36.66;98452.81;4980562;28;20514;-57
2022/05/10 07:31:36;;;;;;;5.20;4.05;;;;;;;33.94;38.19;98454.22;4980548;28;20034;-56
2022/05/10 07:34:01;;;;;;;6.05;4.10;;;;;;;33.85;38.61;98453.56;4980669;28;20618;-57
2022/05/10 07:36:33;;;;;;;7.85;4.18;;;;;;;34.33;37.97;98453.53;4979490;28;20038;-57
2022/05/10 07:39:00;;;;;;;6.28;4.13;;;;;;;34.67;36.96;98459.84;4980510;28;20084;-56
2022/05/10 07:41:25;;;;;;;7.20;4.13;;;;;;;34.15;35.88;98450.53;4980187;28;20130;-56
2022/05/10 07:43:51;;;;;;;8.27;4.53;;;;;;;35.56;33.97;98448.78;4980591;28;20120;-58
2022/05/10 07:46:17;;;;;;;13.68;4.30;;;;;;;34.03;36.11;98446.78;4980238;28;20364;-57
2022/05/10 07:48:43;;;;;;;7.00;4.47;;;;;;;32.93;38.47;98447.34;4980413;28;20034;-57
2022/05/10 07:51:08;;;;;;;9.20;4.22;;;;;;;34.49;36.54;98451.50;4980247;28;20074;-57
2022/05/10 07:53:35;;;;;;;7.30;4.35;;;;;;;33.62;36.84;98445.75;4980413;28;20088;-56
2022/05/10 07:56:02;;;;;;;7.43;4.15;;;;;;;32.98;37.68;98441.34;4979551;28;20798;-57
2022/05/10 07:58:28;;;;;;;6.90;4.43;;;;;;;33.54;36.41;98440.47;4980695;28;20011;-57
2022/05/10 08:00:54;;;;;;;6.10;4.63;;;;;;;32.74;36.87;98434.50;4979751;28;20042;-57
2022/05/10 08:03:22;;;;;;;7.20;4.38;;;;;;;30.92;39.22;98430.56;4980060;28;20108;-57
2022/05/10 08:05:47;;;;;;;7.85;4.47;;;;;;;34.12;35.64;98434.72;4979899;28;20049;-59
2022/05/10 08:08:14;;;;;;;6.88;4.20;;;;;;;34.30;36.44;98424.19;4980371;28;20022;-57
2022/05/10 08:10:41;;;;;;;5.93;4.18;;;;;;;32.92;36.48;98434.00;4979259;28;20061;-56
2022/05/10 08:13:11;;;;;;;11.40;4.45;;;;;;;35.22;32.96;98429.88;4979791;28;20026;-58
2022/05/10 08:15:37;;;;;;;9.35;4.57;;;;;;;33.24;36.55;98432.63;4980029;28;20042;-57
2022/05/10 08:18:03;;;;;;;8.65;5.40;;;;;;;34.06;34.64;98425.56;4979984;28;20202;-56
2022/05/10 08:20:28;;;;;;;8.20;4.30;;;;;;;32.46;36.08;98430.69;4979210;28;20468;-57
2022/05/10 08:22:54;;;;;;;7.13;4.40;;;;;;;34.12;34.31;98432.03;4979875;28;20057;-59
2022/05/10 08:25:19;;;;;;;6.63;4.30;;;;;;;34.89;33.02;98425.28;4978867;28;20296;-56
2022/05/10 08:27:44;;;;;;;7.07;4.07;;;;;;;33.67;35.43;98426.22;4980058;28;20045;-56
2022/05/10 08:30:10;;;;;;;4.60;3.53;;;;;;;33.65;35.46;98428.31;4979054;28;20288;-55
2022/05/10 08:32:35;;;;;;;5.78;3.95;;;;;;;32.35;35.76;98422.25;4980203;28;20406;-57
2022/05/10 08:35:01;;;;;;;6.38;4.20;;;;;;;32.40;36.25;98419.84;4979840;28;20100;-56
2022/05/10 08:37:26;;;;;;;6.72;4.10;;;;;;;33.92;33.96;98413.84;4979020;28;20034;-58
2022/05/10 08:39:51;;;;;;;10.05;3.80;;;;;;;34.92;33.75;98416.75;4979393;28;20022;-58
2022/05/10 08:42:22;;;;;;;11.35;3.90;;;;;;;34.86;33.58;98414.84;4979187;28;20044;-57
2022/05/10 08:44:54;;;;;;;;;;;;;;;34.06;34.00;98416.56;4980095;28;20089;-58
2022/05/10 08:47:19;;;;;;;;;;;;;;;32.66;33.69;98411.16;4979423;28;19917;-57
2022/05/10 08:49:47;;;;;;;6.67;4.17;;;;;;;33.37;34.26;98416.47;4979176;28;19979;-56
2022/05/10 08:52:16;;;;;;;5.40;4.00;;;;;;;33.92;33.50;98413.00;4978739;28;20034;-56
2022/05/10 08:54:42;;;;;;;7.30;4.45;;;;;;;32.75;35.44;98410.00;4979245;28;20061;-57
2022/05/10 08:57:19;;;;;;;9.18;4.18;;;;;;;32.76;34.44;98405.44;4978601;28;20493;-57
2022/05/10 09:00:09;;;;;;;7.47;4.10;;;;;;;34.85;32.38;98406.94;4993957;28;20030;-57
2022/05/10 09:02:48;;;;;;;6.68;4.10;;;;;;;34.91;33.25;98403.41;4978263;28;20049;-57
2022/05/10 09:05:22;;;;;;;7.15;4.57;;;;;;;32.38;33.55;98401.13;4978582;28;20293;-58
2022/05/10 09:07:58;;;;;;;5.88;4.20;;;;;;;32.65;33.69;98396.84;4978817;28;20030;-58
2022/05/10 09:10:46;;;;;;;6.07;3.92;;;;;;;34.60;31.59;98396.72;4978008;28;20042;-56
2022/05/10 09:13:16;;;;;;;14.20;4.28;;;;;;;32.59;32.73;98394.91;4979007;28;20035;-57
2022/05/10 09:16:04;;;;;;;8.68;4.60;;;;;;;32.78;32.97;98401.50;4977926;28;20262;-57
2022/05/10 09:18:36;;;;;;;7.05;3.88;;;;;;;33.33;31.83;98392.75;4979055;28;20032;-57
2022/05/10 09:21:14;;;;;;;8.10;4.10;;;;;;;34.91;30.32;98390.69;4977773;28;20034;-57
2022/05/10 09:24:13;;;;;;;5.78;4.20;;;;;;;35.16;30.05;98389.16;4979067;28;20120;-57
2022/05/10 09:26:47;;;;;;;6.63;4.03;;;;;;;34.65;30.74;98379.81;4978483;28;20053;-56
2022/05/10 09:29:40;;;;;;;5.43;4.00;;;;;;;34.31;31.20;98374.38;4978924;28;20073;-56
2022/05/10 09:35:26;;;;;;;8.43;4.18;;;;;;;33.53;32.89;98382.03;4978642;28;20037;-57
2022/05/10 09:37:55;;;;;;;7.72;4.03;;;;;;;32.89;32.67;98385.81;4979199;28;20160;-56
2022/05/10 09:40:27;;;;;;;6.88;4.00;;;;;;;33.07;32.50;98375.31;4978336;28;20098;-57
2022/05/10 09:42:53;;;;;;;;;;;;;;;33.14;33.63;98378.94;4978844;28;20022;-56
2022/05/10 09:45:24;;;;;;;5.18;3.78;;;;;;;32.16;35.26;98375.16;4977674;28;20068;-58
2022/05/10 09:48:00;;;;;;;5.80;4.03;;;;;;;32.36;33.19;98369.97;4977400;28;20703;-56
2022/05/10 09:50:37;;;;;;;4.75;3.90;;;;;;;32.50;32.72;98376.28;4978023;28;20038;-56
2022/05/10 09:53:11;;;;;;;6.10;3.95;;;;;;;32.03;33.71;98370.47;4978996;28;20080;-56
2022/05/10 09:55:37;;;;;;;7.07;4.18;;;;;;;30.70;33.04;98364.09;4976690;28;20112;-57
2022/05/10 09:58:23;;;;;;;7.43;4.43;;;;;;;33.41;31.62;98368.25;4978946;28;20536;-56
2022/05/10 10:00:52;;;;;;;6.97;4.43;;;;;;;32.70;32.98;98368.41;4981066;28;20535;-55
2022/05/10 10:03:31;;;;;;;9.63;4.72;;;;;;;35.05;29.37;98355.41;4982430;28;20025;-57
2022/05/10 10:06:15;;;;;;;7.22;4.20;;;;;;;33.54;31.07;98356.66;4982145;28;20060;-57
2022/05/10 10:08:44;;;;;;;8.00;4.32;;;;;;;30.98;34.29;98355.44;4981632;28;20034;-55
2022/05/10 10:11:24;;;;;;;8.27;4.55;;;;;;;31.47;33.60;98357.53;4981080;28;20058;-56
2022/05/10 10:13:57;;;;;;;8.32;4.70;;;;;;;31.21;34.10;98356.19;4982069;28;20037;-56
2022/05/10 10:16:26;;;;;;;7.90;4.53;;;;;;;29.45;35.65;98359.69;4981736;28;20065;-56
2022/05/10 10:19:01;;;;;;;9.93;4.93;;;;;;;29.77;37.22;98355.19;4981973;28;20613;-55
2022/05/10 10:21:36;;;;;;;9.00;4.95;;;;;;;30.21;38.25;98353.72;4981523;28;20046;-55
2022/05/10 10:24:04;;;;;;;12.13;5.35;;;;;;;31.70;35.57;98344.75;4982019;28;20033;-56
2022/05/10 10:26:44;;;;;;;10.05;4.88;;;;;;;32.19;33.98;98342.41;4981195;28;20061;-58
2022/05/10 10:29:34;;;;;;;8.70;4.23;;;;;;;33.18;33.42;98344.25;4982020;28;20018;-57
2022/05/10 10:32:06;;;;;;;6.57;4.00;;;;;;;32.81;33.01;98336.28;4980855;28;20069;-57
2022/05/10 10:34:48;;;;;;;8.30;4.20;;;;;;;32.99;32.31;98332.22;4982182;28;20061;-57
2022/05/10 10:37:32;;;;;;;6.28;3.95;;;;;;;32.27;32.45;98334.16;4981054;28;20038;-59
2022/05/10 10:40:11;;;;;;;8.32;4.80;;;;;;;30.47;33.79;98326.44;4981517;28;20023;-57
2022/05/10 10:42:51;;;;;;;7.45;4.70;;;;;;;29.20;35.72;98327.53;4981017;28;20457;-56
2022/05/10 10:45:18;;;;;;;11.38;5.03;;;;;;;30.16;35.62;98321.97;4981646;28;20030;-57
2022/05/10 10:48:24;;;;;;;8.15;4.95;;;;;;;28.92;36.27;98320.91;4981599;28;20149;-56
2022/05/10 10:50:49;;;;;;;10.68;5.63;;;;;;;31.30;33.77;98306.53;4981048;28;20126;-58
2022/05/10 10:53:14;;;;;;;10.25;5.30;;;;;;;32.04;33.20;98313.63;4981657;28;20032;-57
2022/05/10 10:55:42;;;;;;;8.82;5.20;;;;;;;32.16;33.39;98310.41;4981107;28;20069;-56
2022/05/10 10:58:32;;;;;;;9.20;5.07;;;;;;;33.28;31.58;98306.00;4980625;28;20113;-56
2022/05/10 11:01:10;;;;;;;8.40;4.40;;;;;;;31.74;32.60;98295.84;4979504;28;20059;-57
2022/05/10 11:03:49;;;;;;;15.13;4.93;;;;;;;30.96;33.25;98299.03;4980999;28;20053;-57
2022/05/10 11:06:23;;;;;;;12.70;4.90;;;;;;;29.08;35.79;98306.56;4981036;28;20074;-56
2022/05/10 11:09:09;;;;;;;13.55;4.88;;;;;;;29.98;37.12;98303.47;4981368;28;20034;-56
2022/05/10 11:11:55;;;;;;;10.30;4.88;;;;;;;32.14;33.74;98302.50;4980392;28;20046;-56
2022/05/10 11:14:41;;;;;;;10.07;4.80;;;;;;;30.33;33.52;98287.72;4981460;28;20022;-56
2022/05/10 11:17:29;;;;;;;8.82;4.75;;;;;;;30.91;33.27;98291.50;4981134;28;20081;-58
2022/05/10 11:20:33;;;;;;;7.55;4.40;;;;;;;31.09;32.23;98290.31;4981184;28;20026;-57
2022/05/10 11:23:04;;;;;;;8.57;4.70;;;;;;;32.00;31.77;98285.34;4979166;28;20487;-56
2022/05/10 11:25:51;;;;;;;14.00;4.57;;;;;;;31.26;32.46;98289.06;4980718;28;20062;-57
2022/05/10 11:29:11;;;;;;;8.98;5.10;;;;;;;29.84;33.82;98285.41;4980166;28;20038;-58
2022/05/10 11:31:52;;;;;;;12.75;5.32;;;;;;;29.52;34.20;98279.19;4977200;28;20043;-57
2022/05/10 11:34:26;;;;;;;13.73;5.30;;;;;;;30.23;33.62;98276.34;4980476;28;20042;-58
2022/05/10 11:36:58;;;;;;;9.20;4.80;;;;;;;29.98;33.69;98284.63;4979677;28;20595;-57
2022/05/10 11:39:53;;;;;;;10.52;5.10;;;;;;;29.47;34.65;98281.59;4980602;28;20042;-56
2022/05/10 11:42:52;;;;;;;10.32;5.18;;;;;;;28.21;35.37;98270.53;4979879;28;20133;-57
2022/05/10 11:45:36;;;;;;;8.95;4.65;;;;;;;30.31;33.75;98268.19;4980473;28;20092;-57
2022/05/10 11:48:34;;;;;;;9.10;4.90;;;;;;;30.03;34.34;98271.47;4980818;28;20077;-57
2022/05/10 11:51:42;;;;;;;11.40;5.13;;;;;;;29.85;33.45;98263.72;4978463;28;20042;-58
2022/05/10 11:54:34;;;;;;;10.18;5.10;;;;;;;29.78;34.30;98258.22;4980308;28;20030;-57
2022/05/10 11:57:01;;;;;;;12.93;5.20;;;;;;;30.11;35.74;98252.56;4979844;28;20332;-57